createdAt,value
2019-03-15T00:01:43.390Z,3.63
2019-03-15T00:04:14.203Z,3.64
2019-03-15T00:06:45.110Z,3.61
2019-03-15T00:09:15.998Z,3.58
2019-03-15T00:11:46.805Z,3.54
2019-03-15T00:14:17.656Z,3.58
2019-03-15T00:16:48.414Z,3.56
2019-03-15T00:19:19.358Z,3.46
2019-03-15T00:21:50.983Z,3.41
2019-03-15T00:24:21.779Z,3.44
2019-03-15T00:26:52.573Z,3.45
2019-03-15T00:29:23.504Z,3.39
2019-03-15T00:31:55.356Z,3.40
2019-03-15T00:34:26.228Z,3.43
2019-03-15T00:36:57.034Z,3.45
2019-03-15T00:39:27.858Z,3.46
2019-03-15T00:41:58.647Z,3.44
2019-03-15T00:44:29.428Z,3.46
2019-03-15T00:47:00.227Z,3.38
2019-03-15T00:49:32.112Z,3.34
2019-03-15T00:52:02.930Z,3.26
2019-03-15T00:54:33.749Z,3.26
2019-03-15T00:57:05.608Z,3.22
2019-03-15T00:59:36.418Z,3.15
2019-03-15T01:02:07.192Z,3.17
2019-03-15T01:04:38.028Z,3.23
2019-03-15T01:07:08.928Z,3.17
2019-03-15T01:09:40.831Z,3.18
2019-03-15T01:12:11.715Z,3.21
2019-03-15T01:14:42.618Z,3.17
2019-03-15T01:17:14.522Z,3.14
2019-03-15T01:19:45.346Z,3.14
2019-03-15T01:22:16.998Z,3.14
2019-03-15T01:24:47.794Z,3.14
2019-03-15T01:27:18.645Z,3.06
2019-03-15T01:29:49.621Z,3.00
2019-03-15T01:32:20.435Z,3.06
2019-03-15T01:34:51.281Z,3.01
2019-03-15T01:37:22.084Z,2.98
2019-03-15T01:39:52.914Z,2.93
2019-03-15T01:42:23.718Z,2.85
2019-03-15T01:44:54.582Z,2.80
2019-03-15T01:47:25.443Z,2.78
2019-03-15T01:49:56.249Z,2.76
2019-03-15T01:52:27.051Z,2.77
2019-03-15T01:54:57.943Z,2.72
2019-03-15T01:57:28.847Z,2.71
2019-03-15T01:59:59.714Z,2.70
2019-03-15T02:02:30.535Z,2.67
2019-03-15T02:05:01.406Z,2.67
2019-03-15T02:07:32.279Z,2.69
2019-03-15T02:10:03.609Z,2.63
2019-03-15T02:12:34.411Z,2.60
2019-03-15T02:15:09.340Z,2.66
2019-03-15T02:17:40.148Z,2.63
2019-03-15T02:20:10.984Z,2.55
2019-03-15T02:22:42.804Z,2.55
2019-03-15T02:25:13.635Z,2.48
2019-03-15T02:27:44.558Z,2.54
2019-03-15T02:30:21.546Z,2.51
2019-03-15T02:32:53.266Z,2.57
2019-03-15T02:35:24.111Z,2.57
2019-03-15T02:37:54.908Z,2.58
2019-03-15T02:40:25.783Z,2.57
2019-03-15T02:42:56.609Z,2.68
2019-03-15T02:45:27.476Z,2.56
2019-03-15T02:47:58.324Z,2.50
2019-03-15T02:50:29.426Z,2.50
2019-03-15T02:53:00.614Z,2.50
2019-03-15T02:55:31.473Z,2.50
2019-03-15T02:58:02.401Z,2.46
2019-03-15T03:00:33.259Z,2.45
2019-03-15T03:03:04.064Z,2.36
2019-03-15T03:05:34.999Z,2.33
2019-03-15T03:08:05.930Z,2.40
2019-03-15T03:10:36.791Z,2.35
2019-03-15T03:13:08.652Z,2.27
2019-03-15T03:15:39.593Z,2.32
2019-03-15T03:18:10.534Z,2.30
2019-03-15T03:20:41.409Z,2.25
2019-03-15T03:23:14.108Z,2.21
2019-03-15T03:25:45.046Z,2.22
2019-03-15T03:28:15.836Z,2.21
2019-03-15T03:30:47.165Z,2.15
2019-03-15T03:33:18.280Z,2.16
2019-03-15T03:35:49.106Z,2.15
2019-03-15T03:38:19.920Z,2.11
2019-03-15T03:40:50.845Z,2.13
2019-03-15T03:43:21.592Z,2.06
2019-03-15T03:45:52.496Z,2.01
2019-03-15T03:48:23.283Z,2.01
2019-03-15T03:50:54.129Z,2.02
2019-03-15T03:53:25.877Z,2.00
2019-03-15T03:56:01.338Z,1.98
2019-03-15T03:58:39.281Z,1.96
2019-03-15T04:01:09.343Z,1.87
2019-03-15T04:03:44.830Z,1.87
2019-03-15T04:06:15.671Z,1.89
2019-03-15T04:08:48.132Z,1.97
2019-03-15T04:11:19.319Z,1.89
2019-03-15T04:13:51.731Z,1.80
2019-03-15T04:16:22.783Z,1.82
2019-03-15T04:18:55.965Z,1.84
2019-03-15T04:21:28.485Z,1.78
2019-03-15T04:24:00.084Z,1.76
2019-03-15T04:26:32.878Z,1.75
2019-03-15T04:29:03.658Z,1.64
2019-03-15T04:31:34.770Z,1.64
2019-03-15T04:34:05.903Z,1.64
2019-03-15T04:36:36.833Z,1.64
2019-03-15T04:39:08.084Z,1.61
2019-03-15T04:41:40.627Z,1.63
2019-03-15T04:44:17.833Z,1.65
2019-03-15T04:46:48.687Z,1.63
2019-03-15T04:49:19.505Z,1.60
2019-03-15T04:51:50.435Z,1.65
2019-03-15T04:54:21.216Z,1.62
2019-03-15T04:56:54.701Z,1.71
2019-03-15T04:59:26.957Z,1.73
2019-03-15T05:01:59.559Z,1.74
2019-03-15T05:04:30.419Z,1.67
2019-03-15T05:07:01.433Z,1.76
2019-03-15T05:09:32.392Z,1.73
2019-03-15T05:12:06.467Z,1.75
2019-03-15T05:14:39.034Z,1.80
2019-03-15T05:17:09.961Z,1.84
2019-03-15T05:19:40.913Z,1.95
2019-03-15T05:22:11.847Z,1.87
2019-03-15T05:24:43.883Z,1.91
2019-03-15T05:27:14.952Z,1.97
2019-03-15T05:29:47.939Z,1.96
2019-03-15T05:32:18.830Z,1.99
2019-03-15T05:34:50.740Z,2.02
2019-03-15T05:37:26.159Z,2.08
2019-03-15T05:39:58.608Z,2.06
2019-03-15T05:42:32.115Z,2.00
2019-03-15T05:45:02.435Z,2.10
2019-03-15T05:47:35.972Z,2.31
2019-03-15T05:50:15.055Z,2.29
2019-03-15T05:52:46.343Z,2.32
2019-03-15T05:55:17.318Z,2.33
2019-03-15T05:57:48.299Z,2.36
2019-03-15T06:00:22.755Z,2.37
2019-03-15T06:02:54.892Z,2.42
2019-03-15T06:05:26.877Z,2.31
2019-03-15T06:07:58.024Z,2.48
2019-03-15T06:10:30.057Z,2.42
2019-03-15T06:13:01.400Z,2.47
2019-03-15T06:15:32.478Z,2.48
2019-03-15T06:18:06.755Z,2.69
2019-03-15T06:20:37.696Z,2.68
2019-03-15T06:23:08.650Z,2.64
2019-03-15T06:25:43.336Z,2.68
2019-03-15T06:28:14.446Z,2.64
2019-03-15T06:30:47.213Z,2.58
2019-03-15T06:33:19.754Z,2.85
2019-03-15T06:35:50.867Z,2.94
2019-03-15T06:38:33.498Z,2.88
2019-03-15T06:41:00.352Z,3.15
2019-03-15T06:43:31.613Z,3.31
2019-03-15T06:46:02.596Z,3.42
2019-03-15T06:48:33.977Z,3.25
2019-03-15T06:51:09.112Z,3.35
2019-03-15T06:53:38.672Z,3.58
2019-03-15T06:56:09.650Z,3.73
2019-03-15T06:58:40.701Z,3.64
2019-03-15T07:01:13.313Z,3.79
2019-03-15T07:03:44.459Z,3.88
2019-03-15T07:06:15.495Z,3.96
2019-03-15T07:08:46.440Z,4.15
2019-03-15T07:11:17.938Z,4.10
2019-03-15T07:13:48.980Z,4.10
2019-03-15T07:16:19.998Z,4.34
2019-03-15T07:18:51.025Z,4.46
2019-03-15T07:21:22.182Z,4.55
2019-03-15T07:23:53.057Z,4.54
2019-03-15T07:26:26.359Z,4.70
2019-03-15T07:28:57.544Z,4.89
2019-03-15T07:31:28.526Z,4.80
2019-03-15T07:33:59.774Z,4.86
2019-03-15T07:36:30.846Z,4.99
2019-03-15T07:39:01.955Z,5.10
2019-03-15T07:41:33.114Z,5.13
2019-03-15T07:44:04.290Z,5.32
2019-03-15T07:46:35.430Z,5.41
2019-03-15T07:49:07.390Z,5.54
2019-03-15T07:51:38.985Z,5.30
2019-03-15T07:54:11.482Z,5.69
2019-03-15T07:56:42.765Z,6.04
2019-03-15T07:59:14.218Z,5.76
2019-03-15T08:01:45.181Z,5.83
2019-03-15T08:04:19.785Z,5.89
2019-03-15T08:06:50.771Z,5.97
2019-03-15T08:09:21.917Z,6.11
2019-03-15T08:11:53.084Z,6.46
2019-03-15T08:14:24.178Z,6.25
2019-03-15T08:16:55.353Z,6.48
2019-03-15T08:19:26.944Z,6.45
2019-03-15T08:21:58.115Z,6.02
2019-03-15T08:24:51.047Z,6.27
2019-03-15T08:27:16.402Z,6.37
2019-03-15T08:29:47.712Z,6.12
2019-03-15T08:32:18.794Z,6.40
2019-03-15T08:34:49.878Z,6.67
2019-03-15T08:37:20.862Z,6.94
2019-03-15T08:39:51.816Z,6.76
2019-03-15T08:42:22.881Z,6.58
2019-03-15T08:44:54.973Z,6.55
2019-03-15T08:47:25.928Z,6.91
2019-03-15T08:49:57.067Z,6.51
2019-03-15T08:52:28.089Z,6.58
2019-03-15T08:55:05.171Z,6.47
2019-03-15T08:57:32.029Z,6.41
2019-03-15T09:00:03.572Z,6.76
2019-03-15T09:02:34.685Z,6.68
2019-03-15T09:05:08.463Z,7.02
2019-03-15T09:07:39.783Z,7.39
2019-03-15T09:10:22.558Z,7.24
2019-03-15T09:12:50.695Z,7.21
2019-03-15T09:15:24.823Z,6.87
2019-03-15T09:17:58.416Z,7.12
2019-03-15T09:20:30.602Z,7.48
2019-03-15T09:23:02.249Z,7.59
2019-03-15T09:25:35.241Z,7.92
2019-03-15T09:28:07.198Z,8.00
2019-03-15T09:30:42.063Z,7.68
2019-03-15T09:33:14.943Z,7.78
2019-03-15T09:35:48.728Z,8.07
2019-03-15T09:38:19.767Z,8.26
2019-03-15T09:40:50.825Z,8.10
2019-03-15T09:43:26.442Z,8.53
2019-03-15T09:45:59.053Z,8.42
2019-03-15T09:48:33.575Z,8.27
2019-03-15T09:51:07.863Z,8.24
2019-03-15T09:53:41.583Z,8.40
2019-03-15T09:56:13.226Z,7.99
2019-03-15T09:58:48.896Z,8.17
2019-03-15T10:01:34.362Z,8.54
2019-03-15T10:03:52.728Z,8.83
2019-03-15T10:06:29.159Z,9.33
2019-03-15T10:08:56.736Z,9.12
2019-03-15T10:11:33.546Z,9.10
2019-03-15T10:14:06.688Z,9.01
2019-03-15T10:16:38.427Z,8.79
2019-03-15T10:19:09.988Z,9.34
2019-03-15T10:21:42.740Z,9.11
2019-03-15T10:24:18.457Z,9.10
2019-03-15T10:26:49.886Z,9.04
2019-03-15T10:29:29.555Z,9.12
2019-03-15T10:32:03.252Z,9.40
2019-03-15T10:34:37.701Z,8.84
2019-03-15T10:37:10.751Z,8.89
2019-03-15T10:39:41.790Z,8.76
2019-03-15T10:42:13.088Z,9.03
2019-03-15T10:44:44.244Z,9.16
2019-03-15T10:47:19.908Z,9.14
2019-03-15T10:49:56.093Z,8.95
2019-03-15T10:52:30.708Z,8.15
2019-03-15T10:55:01.903Z,8.77
2019-03-15T10:57:34.687Z,9.09
2019-03-15T11:00:21.272Z,9.28
2019-03-15T11:02:55.432Z,8.71
2019-03-15T11:05:29.225Z,8.71
2019-03-15T11:08:04.853Z,8.90
2019-03-15T11:10:36.154Z,9.08
2019-03-15T11:13:08.025Z,9.32
2019-03-15T11:15:40.844Z,9.13
2019-03-15T11:18:14.719Z,9.02
2019-03-15T11:20:47.470Z,9.44
2019-03-15T11:23:21.279Z,8.76
2019-03-15T11:25:56.852Z,8.79
2019-03-15T11:28:28.567Z,8.73
2019-03-15T11:31:00.904Z,8.71
2019-03-15T11:33:35.214Z,8.62
2019-03-15T11:36:06.487Z,8.65
2019-03-15T11:38:37.822Z,8.76
2019-03-15T11:41:08.876Z,8.85
2019-03-15T11:43:39.990Z,8.56
2019-03-15T11:46:11.057Z,8.87
2019-03-15T11:48:42.341Z,9.03
2019-03-15T11:51:13.523Z,8.91
2019-03-15T11:53:44.525Z,9.02
2019-03-15T11:56:26.515Z,9.50
2019-03-15T11:58:48.438Z,9.95
2019-03-15T12:01:19.456Z,10.15
2019-03-15T12:03:53.282Z,9.96
2019-03-15T12:06:23.674Z,9.64
2019-03-15T12:08:55.142Z,9.88
2019-03-15T12:11:26.159Z,9.44
2019-03-15T12:13:57.168Z,9.31
2019-03-15T12:16:28.201Z,8.90
2019-03-15T12:18:59.285Z,9.02
2019-03-15T12:21:30.248Z,9.45
2019-03-15T12:24:01.373Z,9.57
2019-03-15T12:26:40.245Z,9.67
2019-03-15T12:29:36.570Z,9.31
2019-03-15T12:31:42.058Z,9.41
2019-03-15T12:34:19.508Z,9.84
2019-03-15T12:36:53.489Z,9.65
2019-03-15T12:39:27.722Z,9.75
2019-03-15T12:42:07.147Z,9.37
2019-03-15T12:44:38.227Z,9.52
2019-03-15T12:47:11.958Z,9.76
2019-03-15T12:49:43.130Z,9.69
2019-03-15T12:52:23.406Z,9.07
2019-03-15T12:54:56.219Z,8.95
2019-03-15T12:57:27.363Z,9.12
2019-03-15T13:00:00.268Z,9.51
2019-03-15T13:02:34.666Z,9.81
2019-03-15T13:05:05.879Z,9.74
2019-03-15T13:07:39.645Z,9.57
2019-03-15T13:10:19.990Z,9.34
2019-03-15T13:12:51.249Z,9.35
2019-03-15T13:15:22.210Z,9.59
2019-03-15T13:17:55.770Z,9.74
2019-03-15T13:20:30.803Z,9.83
2019-03-15T13:23:03.626Z,9.73
2019-03-15T13:25:37.364Z,9.50
2019-03-15T13:28:09.677Z,9.36
2019-03-15T13:30:41.016Z,9.48
2019-03-15T13:33:22.097Z,9.25
2019-03-15T13:35:59.133Z,8.99
2019-03-15T13:38:31.774Z,9.02
2019-03-15T13:41:05.092Z,9.26
2019-03-15T13:43:38.974Z,9.19
2019-03-15T13:46:12.753Z,9.04
2019-03-15T13:48:43.886Z,9.02
2019-03-15T13:51:15.007Z,9.01
2019-03-15T13:53:49.176Z,8.75
2019-03-15T13:56:20.368Z,8.65
2019-03-15T13:58:57.022Z,8.65
2019-03-15T14:01:24.440Z,8.63
2019-03-15T14:03:55.484Z,8.72
2019-03-15T14:06:26.734Z,8.65
2019-03-15T14:08:57.760Z,8.44
2019-03-15T14:14:39.027Z,8.48
2019-03-15T14:17:10.223Z,8.40
2019-03-15T14:19:50.281Z,8.34
2019-03-15T14:22:22.537Z,8.26
2019-03-15T14:24:54.177Z,8.27
2019-03-15T14:27:36.946Z,8.33
2019-03-15T14:29:58.456Z,8.18
2019-03-15T14:32:29.694Z,8.26
2019-03-15T14:38:05.856Z,8.24
2019-03-15T14:40:40.038Z,8.35
2019-03-15T14:43:11.145Z,8.38
2019-03-15T14:45:42.239Z,8.55
2019-03-15T14:48:13.373Z,8.61
2019-03-15T14:50:44.460Z,8.65
2019-03-15T14:53:15.542Z,8.55
2019-03-15T14:55:46.971Z,8.40
2019-03-15T14:58:19.601Z,8.37
2019-03-15T15:01:05.261Z,8.32
2019-03-15T15:03:39.069Z,8.35
2019-03-15T15:06:10.104Z,8.31
2019-03-15T15:12:10.671Z,8.02
2019-03-15T15:18:01.724Z,7.87
2019-03-15T15:20:32.936Z,7.87
2019-03-15T15:23:06.057Z,7.82
2019-03-15T15:25:37.183Z,7.88
2019-03-15T15:28:08.429Z,7.75
2019-03-15T15:30:39.480Z,7.76
2019-03-15T15:33:10.784Z,7.63
2019-03-15T15:35:44.067Z,7.55
2019-03-15T15:38:15.534Z,7.52
2019-03-15T15:40:47.010Z,7.48
2019-03-15T15:43:18.092Z,7.44
2019-03-15T15:45:49.285Z,7.48
2019-03-15T15:48:20.553Z,7.38
2019-03-15T15:50:51.774Z,7.44
2019-03-15T15:53:22.878Z,7.39
2019-03-15T15:55:54.008Z,7.32
2019-03-15T15:58:25.136Z,7.29
2019-03-15T16:00:56.189Z,7.32
2019-03-15T16:03:27.101Z,7.23
2019-03-15T16:05:58.248Z,7.27
2019-03-15T16:08:31.027Z,7.15
2019-03-15T16:11:01.996Z,7.15
2019-03-15T16:13:33.169Z,7.11
2019-03-15T16:16:04.178Z,7.11
2019-03-15T16:18:35.279Z,7.00
2019-03-15T16:21:06.459Z,6.94
2019-03-15T16:23:38.700Z,6.89
2019-03-15T16:26:09.907Z,6.80
2019-03-15T16:28:40.908Z,6.80
2019-03-15T16:31:12.041Z,6.80
2019-03-15T16:33:43.252Z,6.75
2019-03-15T16:36:15.458Z,6.65
2019-03-15T16:38:46.832Z,6.66
2019-03-15T16:41:17.923Z,6.58
2019-03-15T16:43:49.028Z,6.58
2019-03-15T16:46:20.263Z,6.52
2019-03-15T16:49:01.732Z,6.48
2019-03-15T16:51:33.950Z,6.55
2019-03-15T16:54:04.979Z,6.47
2019-03-15T16:56:39.705Z,6.41
2019-03-15T16:59:13.934Z,6.33
2019-03-15T17:01:45.674Z,6.30
2019-03-15T17:04:16.796Z,6.25
2019-03-15T17:06:47.860Z,6.20
2019-03-15T17:09:21.427Z,6.09
2019-03-15T17:11:54.186Z,6.03
2019-03-15T17:14:26.117Z,6.02
2019-03-15T17:16:57.436Z,5.98
2019-03-15T17:19:30.731Z,5.93
2019-03-15T17:22:04.932Z,5.88
2019-03-15T17:24:39.732Z,5.80
2019-03-15T17:27:11.973Z,5.74
2019-03-15T17:29:43.310Z,5.62
2019-03-15T17:32:15.883Z,5.54
2019-03-15T17:38:00.694Z,5.51
2019-03-15T17:40:32.214Z,5.39
2019-03-15T17:43:05.900Z,5.32
2019-03-15T17:45:41.421Z,5.35
2019-03-15T17:48:14.787Z,5.27
2019-03-15T17:50:45.887Z,5.20
2019-03-15T17:53:16.827Z,5.15
2019-03-15T17:55:49.637Z,5.22
2019-03-15T17:58:21.703Z,5.20
2019-03-15T18:00:55.175Z,5.12
2019-03-15T18:03:26.337Z,5.07
2019-03-15T18:05:59.034Z,5.03
2019-03-15T18:08:33.372Z,4.97
2019-03-15T18:11:05.396Z,4.91
2019-03-15T18:13:40.713Z,4.79
2019-03-15T18:16:11.825Z,4.75
2019-03-15T18:18:44.765Z,4.74
2019-03-15T18:21:15.864Z,4.70
2019-03-15T18:23:54.383Z,4.68
2019-03-15T18:26:30.174Z,4.64
2019-03-15T18:29:04.105Z,4.57
2019-03-15T18:31:35.268Z,4.59
2019-03-15T18:34:06.648Z,4.50
2019-03-15T18:36:42.868Z,4.50
2019-03-15T18:39:19.938Z,4.46
2019-03-15T18:41:52.057Z,4.43
2019-03-15T18:44:27.392Z,4.40
2019-03-15T18:46:58.455Z,4.38
2019-03-15T18:49:29.599Z,4.39
2019-03-15T18:52:01.188Z,4.41
2019-03-15T18:54:32.966Z,4.35
2019-03-15T18:57:05.181Z,4.38
2019-03-15T18:59:40.251Z,4.40
2019-03-15T19:02:11.758Z,4.36
2019-03-15T19:04:44.714Z,4.38
2019-03-15T19:07:18.579Z,4.40
2019-03-15T19:09:49.536Z,4.31
2019-03-15T19:12:22.081Z,4.33
2019-03-15T19:14:53.079Z,4.29
2019-03-15T19:17:25.094Z,4.26
2019-03-15T19:20:03.451Z,4.30
2019-03-15T19:22:36.222Z,4.30
2019-03-15T19:25:11.883Z,4.37
2019-03-15T19:27:42.878Z,4.36
2019-03-15T19:30:19.930Z,4.28
2019-03-15T19:32:52.547Z,4.31
2019-03-15T19:35:27.071Z,4.31
2019-03-15T19:38:02.455Z,4.29
2019-03-15T19:40:34.324Z,4.28
2019-03-15T19:43:07.287Z,4.26
2019-03-15T19:45:39.087Z,4.21
2019-03-15T19:48:10.161Z,4.18
2019-03-15T19:50:48.729Z,4.18
2019-03-15T19:53:21.294Z,4.14
2019-03-15T19:55:52.421Z,4.19
2019-03-15T19:58:25.859Z,4.21
2019-03-15T20:01:00.243Z,4.14
2019-03-15T20:03:43.573Z,4.08
2019-03-15T20:06:03.827Z,4.12
2019-03-15T20:08:39.307Z,4.09
2019-03-15T20:11:10.358Z,4.05
2019-03-15T20:13:41.627Z,4.11
2019-03-15T20:16:15.879Z,4.10
2019-03-15T20:18:46.894Z,4.06
2019-03-15T20:21:19.462Z,4.21
2019-03-15T20:23:50.475Z,4.13
2019-03-15T20:26:23.791Z,4.11
2019-03-15T20:28:58.437Z,4.11
2019-03-15T20:31:36.524Z,4.07
2019-03-15T20:34:10.452Z,4.08
2019-03-15T20:36:46.164Z,4.02
2019-03-15T20:39:22.547Z,4.06
2019-03-15T20:41:57.745Z,4.11
2019-03-15T20:44:30.667Z,4.08
2019-03-15T20:47:03.414Z,3.98
2019-03-15T20:49:52.717Z,3.96
2019-03-15T20:52:25.337Z,3.97
2019-03-15T20:54:56.271Z,3.97
2019-03-15T20:57:29.933Z,4.00
2019-03-15T21:00:00.871Z,3.94
2019-03-15T21:02:32.015Z,3.95
2019-03-15T21:05:08.034Z,3.99
2019-03-15T21:07:43.787Z,3.97
2019-03-15T21:10:17.113Z,3.99
2019-03-15T21:12:48.192Z,3.91
2019-03-15T21:15:19.102Z,3.90
2019-03-15T21:17:50.237Z,3.87
2019-03-15T21:20:29.590Z,3.93
2019-03-15T21:23:03.733Z,3.91
2019-03-15T21:25:38.026Z,3.92
2019-03-15T21:28:10.319Z,3.97
2019-03-15T21:30:48.492Z,3.90
2019-03-15T21:33:16.885Z,3.86
2019-03-15T21:35:51.567Z,3.92
2019-03-15T21:38:23.039Z,3.92
2019-03-15T21:40:58.232Z,3.78
2019-03-15T21:43:29.340Z,3.83
2019-03-15T21:46:01.858Z,3.84
2019-03-15T21:48:32.651Z,3.90
2019-03-15T21:51:03.702Z,3.90
2019-03-15T21:53:34.804Z,3.85
2019-03-15T21:56:07.857Z,3.91
2019-03-15T21:58:38.825Z,3.88
2019-03-15T22:01:12.583Z,3.93
2019-03-15T22:03:45.235Z,3.95
2019-03-15T22:06:16.147Z,3.97
2019-03-15T22:08:47.087Z,3.97
2019-03-15T22:11:21.315Z,3.94
2019-03-15T22:13:50.709Z,3.88
2019-03-15T22:16:27.051Z,3.87
2019-03-15T22:18:57.954Z,3.75
2019-03-15T22:21:28.869Z,3.86
2019-03-15T22:23:59.741Z,3.86
2019-03-15T22:26:33.518Z,3.87
2019-03-15T22:29:04.331Z,3.81
2019-03-15T22:31:35.371Z,3.89
2019-03-15T22:34:06.264Z,3.87
2019-03-15T22:36:37.124Z,3.91
2019-03-15T22:39:08.151Z,3.91
2019-03-15T22:41:39.072Z,3.86
2019-03-15T22:44:10.719Z,3.81
2019-03-15T22:46:41.726Z,3.89
2019-03-15T22:49:12.607Z,3.90
2019-03-15T22:51:43.625Z,3.86
2019-03-15T22:54:14.547Z,3.87
2019-03-15T22:56:45.465Z,3.86
2019-03-15T22:59:16.287Z,3.84
2019-03-15T23:01:47.120Z,3.83
2019-03-15T23:04:18.089Z,3.83
2019-03-15T23:06:48.899Z,3.77
2019-03-15T23:09:19.786Z,3.92
2019-03-15T23:11:50.721Z,3.81
2019-03-15T23:14:21.553Z,3.88
2019-03-15T23:16:52.479Z,3.93
2019-03-15T23:19:23.425Z,3.97
2019-03-15T23:21:55.333Z,3.91
2019-03-15T23:24:26.149Z,4.00
2019-03-15T23:26:57.137Z,3.97
2019-03-15T23:29:28.030Z,3.99
2019-03-15T23:31:59.034Z,3.98
2019-03-15T23:34:30.135Z,3.94
2019-03-15T23:37:01.268Z,3.97
2019-03-15T23:39:32.250Z,3.99
2019-03-15T23:42:03.363Z,3.91
2019-03-15T23:44:35.208Z,3.94
2019-03-15T23:47:06.106Z,3.89
2019-03-15T23:49:37.155Z,3.88
2019-03-15T23:52:08.270Z,3.95
2019-03-15T23:54:39.163Z,3.95
2019-03-15T23:57:10.061Z,3.94
2019-03-15T23:59:40.913Z,4.00
